createdAt,value
2022-08-19T00:03:04.509Z,16.43
2022-08-19T00:08:05.918Z,16.42
2022-08-19T00:13:07.314Z,16.42
2022-08-19T00:18:08.656Z,16.43
2022-08-19T00:23:10.438Z,16.40
2022-08-19T00:28:11.787Z,16.46
2022-08-19T00:33:14.697Z,16.31
2022-08-19T00:38:16.046Z,16.28
2022-08-19T00:43:36.436Z,16.24
2022-08-19T00:48:37.907Z,16.23
2022-08-19T00:53:40.622Z,16.03
2022-08-19T00:58:42.080Z,15.97
2022-08-19T01:03:57.972Z,15.97
2022-08-19T01:09:00.595Z,15.95
2022-08-19T01:14:04.723Z,15.97
2022-08-19T01:19:13.562Z,15.96
2022-08-19T01:24:15.021Z,15.98
2022-08-19T01:29:16.386Z,15.93
2022-08-19T01:34:18.187Z,15.94
2022-08-19T01:39:23.753Z,15.92
2022-08-19T01:44:25.244Z,15.93
2022-08-19T01:49:27.583Z,15.84
2022-08-19T01:54:29.196Z,15.75
2022-08-19T01:59:31.151Z,15.70
2022-08-19T02:04:32.491Z,15.67
2022-08-19T02:09:35.134Z,15.58
2022-08-19T02:14:36.886Z,15.50
2022-08-19T02:19:39.053Z,15.49
2022-08-19T02:24:42.462Z,15.41
2022-08-19T02:29:43.976Z,15.40
2022-08-19T02:34:45.321Z,15.32
2022-08-19T02:39:46.897Z,15.40
2022-08-19T02:44:48.808Z,15.37
2022-08-19T02:49:53.087Z,15.39
2022-08-19T02:54:54.558Z,15.38
2022-08-19T02:59:55.910Z,15.39
2022-08-19T03:04:57.496Z,15.37
2022-08-19T03:09:58.990Z,15.40
2022-08-19T03:15:01.699Z,15.29
2022-08-19T03:20:03.538Z,15.24
2022-08-19T03:25:05.100Z,15.22
2022-08-19T03:30:07.811Z,15.13
2022-08-19T03:35:13.119Z,15.05
2022-08-19T03:40:16.497Z,15.03
2022-08-19T03:45:18.483Z,15.00
2022-08-19T03:50:20.291Z,14.98
2022-08-19T03:55:21.636Z,15.00
2022-08-19T04:00:23.044Z,14.93
2022-08-19T04:05:24.702Z,14.90
2022-08-19T04:10:29.649Z,14.92
2022-08-19T04:15:32.247Z,14.91
2022-08-19T04:20:33.812Z,14.86
2022-08-19T04:25:39.202Z,14.84
2022-08-19T04:30:44.486Z,14.82
2022-08-19T04:35:47.660Z,14.88
2022-08-19T04:41:09.421Z,14.84
2022-08-19T04:46:11.973Z,14.89
2022-08-19T04:51:34.360Z,15.06
2022-08-19T04:56:35.744Z,15.03
2022-08-19T05:01:37.656Z,15.05
2022-08-19T05:06:40.198Z,15.14
2022-08-19T05:11:41.542Z,15.35
2022-08-19T05:16:42.940Z,15.53
2022-08-19T05:22:03.611Z,15.80
2022-08-19T05:27:06.487Z,16.04
2022-08-19T05:32:11.490Z,16.42
2022-08-19T05:37:12.837Z,16.91
2022-08-19T05:42:14.228Z,17.27
2022-08-19T05:47:15.983Z,17.81
2022-08-19T05:52:18.656Z,18.98
2022-08-19T05:57:20.715Z,20.30
2022-08-19T06:02:22.667Z,20.90
2022-08-19T06:07:24.194Z,20.92
2022-08-19T06:12:33.887Z,20.75
2022-08-19T06:17:36.131Z,20.72
2022-08-19T06:22:41.419Z,20.90
2022-08-19T06:33:04.401Z,19.66
2022-08-19T06:38:06.013Z,19.84
2022-08-19T06:43:08.581Z,19.91
2022-08-19T06:48:11.742Z,19.48
2022-08-19T06:53:13.262Z,19.54
2022-08-19T06:58:15.194Z,19.67
2022-08-19T07:03:16.837Z,20.16
2022-08-19T07:08:18.634Z,21.15
2022-08-19T07:13:20.201Z,22.89
2022-08-19T07:18:22.555Z,24.42
2022-08-19T07:23:23.957Z,26.24
2022-08-19T07:28:25.935Z,27.56
2022-08-19T07:33:31.101Z,28.11
2022-08-19T07:38:34.886Z,26.09
2022-08-19T07:43:36.285Z,26.89
2022-08-19T07:48:37.601Z,29.12
2022-08-19T07:53:39.939Z,29.75
2022-08-19T07:58:43.344Z,30.62
2022-08-19T08:04:03.532Z,30.79
2022-08-19T08:09:16.628Z,30.29
2022-08-19T08:14:29.365Z,27.37
2022-08-19T08:19:31.497Z,29.98
2022-08-19T08:24:33.141Z,28.81
2022-08-19T08:29:35.350Z,27.41
2022-08-19T08:34:37.972Z,27.68
2022-08-19T08:39:39.430Z,26.14
2022-08-19T08:44:40.785Z,28.59
2022-08-19T08:49:46.255Z,28.17
2022-08-19T08:54:55.645Z,31.18
2022-08-19T08:59:58.009Z,32.12
2022-08-19T09:04:59.698Z,33.59
2022-08-19T09:10:22.463Z,32.37
2022-08-19T09:15:36.811Z,31.92
2022-08-19T09:20:42.578Z,29.97
2022-08-19T09:25:44.464Z,28.83
2022-08-19T09:30:45.823Z,28.29
2022-08-19T09:35:53.297Z,30.25
2022-08-19T09:40:55.256Z,28.09
2022-08-19T09:45:57.587Z,30.26
2022-08-19T09:51:12.067Z,30.51
2022-08-19T09:56:14.203Z,28.97
2022-08-19T10:01:26.580Z,29.71
2022-08-19T10:06:46.159Z,30.20
2022-08-19T10:11:54.858Z,28.12
2022-08-19T10:16:57.558Z,30.55
2022-08-19T10:22:03.196Z,30.92
2022-08-19T10:27:04.739Z,31.93
2022-08-19T10:32:09.418Z,30.81
2022-08-19T10:37:11.646Z,27.78
2022-08-19T10:42:17.863Z,29.58
2022-08-19T10:47:25.047Z,30.18
2022-08-19T10:52:38.915Z,29.00
2022-08-19T10:58:01.308Z,29.04
2022-08-19T11:03:03.317Z,27.94
2022-08-19T11:08:22.595Z,29.88
2022-08-19T11:13:25.597Z,28.23
2022-08-19T11:18:27.423Z,29.32
2022-08-19T11:23:28.766Z,32.64
2022-08-19T11:28:30.168Z,33.27
2022-08-19T11:33:31.887Z,31.63
2022-08-19T11:38:33.233Z,29.30
2022-08-19T11:43:37.459Z,28.98
2022-08-19T11:48:39.643Z,31.65
2022-08-19T11:53:41.598Z,30.19
2022-08-19T11:58:43.084Z,30.15
2022-08-19T12:03:45.926Z,31.82
2022-08-19T12:08:48.426Z,29.65
2022-08-19T12:13:50.967Z,29.66
2022-08-19T12:18:52.369Z,30.05
2022-08-19T12:23:55.758Z,30.30
2022-08-19T12:28:57.367Z,31.59
2022-08-19T12:33:59.189Z,30.13
2022-08-19T12:39:00.761Z,30.77
2022-08-19T12:44:02.192Z,29.83
2022-08-19T12:49:05.148Z,29.82
2022-08-19T12:54:22.129Z,28.91
2022-08-19T12:59:23.823Z,29.52
2022-08-19T13:04:25.519Z,30.42
2022-08-19T13:09:27.010Z,30.75
2022-08-19T13:14:28.420Z,28.91
2022-08-19T13:19:31.255Z,29.93
2022-08-19T13:24:34.111Z,29.29
2022-08-19T13:29:54.098Z,29.48
2022-08-19T13:34:55.443Z,30.03
2022-08-19T13:39:56.865Z,29.92
2022-08-19T13:44:59.438Z,30.36
2022-08-19T13:50:01.409Z,29.75
2022-08-19T13:55:02.945Z,30.24
2022-08-19T14:00:05.042Z,30.46
2022-08-19T14:05:07.386Z,29.40
2022-08-19T14:10:09.576Z,28.69
2022-08-19T14:15:12.011Z,29.02
2022-08-19T14:20:17.553Z,29.17
2022-08-19T14:25:21.391Z,28.91
2022-08-19T14:30:29.220Z,29.12
2022-08-19T14:35:34.701Z,29.29
2022-08-19T14:40:36.233Z,28.90
2022-08-19T14:45:38.617Z,28.69
2022-08-19T14:50:42.188Z,28.55
2022-08-19T14:55:43.908Z,28.65
2022-08-19T15:00:45.285Z,28.35
2022-08-19T15:05:46.938Z,28.29
2022-08-19T15:10:48.779Z,28.04
2022-08-19T15:15:50.226Z,28.14
2022-08-19T15:20:51.955Z,27.97
2022-08-19T15:25:55.814Z,28.01
2022-08-19T15:30:57.964Z,27.84
2022-08-19T15:36:00.168Z,27.68
2022-08-19T15:41:21.901Z,27.59
2022-08-19T15:46:25.765Z,27.46
2022-08-19T15:51:30.279Z,27.43
2022-08-19T15:56:57.518Z,27.50
2022-08-19T16:02:18.231Z,27.58
2022-08-19T16:07:22.431Z,27.80
2022-08-19T16:12:30.315Z,27.46
2022-08-19T16:17:31.665Z,27.28
2022-08-19T16:22:33.086Z,27.23
2022-08-19T16:27:34.653Z,26.94
2022-08-19T16:32:35.999Z,26.85
2022-08-19T16:37:37.377Z,26.72
2022-08-19T16:42:39.711Z,26.41
2022-08-19T16:47:41.207Z,26.10
2022-08-19T16:52:42.838Z,25.85
2022-08-19T16:57:44.532Z,25.59
2022-08-19T17:02:45.873Z,25.72
2022-08-19T17:07:47.219Z,25.71
2022-08-19T17:12:48.600Z,25.53
2022-08-19T17:17:50.026Z,25.25
2022-08-19T17:22:51.450Z,25.02
2022-08-19T17:27:53.155Z,24.92
2022-08-19T17:32:54.548Z,24.65
2022-08-19T17:37:56.128Z,24.48
2022-08-19T17:42:57.563Z,24.32
2022-08-19T17:48:00.709Z,24.22
2022-08-19T17:53:02.263Z,24.06
2022-08-19T17:58:05.173Z,23.98
2022-08-19T18:03:09.821Z,23.86
2022-08-19T18:08:13.675Z,23.80
2022-08-19T18:13:17.199Z,23.63
2022-08-19T18:18:18.928Z,23.32
2022-08-19T18:23:45.279Z,23.15
2022-08-19T18:28:49.359Z,23.06
2022-08-19T18:33:54.167Z,22.85
2022-08-19T18:39:14.237Z,22.67
2022-08-19T18:44:34.178Z,22.54
2022-08-19T18:49:35.525Z,22.35
2022-08-19T18:54:38.385Z,22.16
2022-08-19T18:59:43.460Z,22.03
2022-08-19T19:04:45.629Z,21.97
2022-08-19T19:09:52.775Z,22.00
2022-08-19T19:14:54.844Z,22.08
2022-08-19T19:19:56.189Z,22.01
2022-08-19T19:24:59.328Z,21.91
2022-08-19T19:30:00.734Z,21.70
2022-08-19T19:35:02.071Z,21.52
2022-08-19T19:40:03.914Z,21.33
2022-08-19T19:45:05.548Z,21.27
2022-08-19T19:50:15.881Z,21.10
2022-08-19T19:55:20.626Z,20.99
2022-08-19T20:00:22.054Z,20.90
2022-08-19T20:05:23.875Z,20.86
2022-08-19T20:10:25.704Z,20.71
2022-08-19T20:15:28.440Z,20.70
2022-08-19T20:20:31.124Z,20.63
2022-08-19T20:25:33.983Z,20.65
2022-08-19T20:30:35.434Z,20.72
2022-08-19T20:35:39.848Z,20.79
2022-08-19T20:40:41.371Z,20.84
2022-08-19T20:45:42.816Z,20.88
2022-08-19T20:50:44.557Z,20.87
2022-08-19T20:55:49.136Z,20.79
2022-08-19T21:00:52.920Z,20.83
2022-08-19T21:05:54.772Z,20.94
2022-08-19T21:10:56.831Z,20.97
2022-08-19T21:15:58.291Z,21.12
2022-08-19T21:20:59.653Z,21.11
2022-08-19T21:26:01.184Z,21.11
2022-08-19T21:31:02.534Z,21.07
2022-08-19T21:36:04.741Z,21.06
2022-08-19T21:41:06.922Z,21.20
2022-08-19T21:46:09.007Z,21.22
2022-08-19T21:51:10.361Z,21.23
2022-08-19T21:56:12.739Z,21.18
2022-08-19T22:01:14.148Z,21.12
2022-08-19T22:06:16.373Z,21.12
2022-08-19T22:11:17.725Z,21.13
2022-08-19T22:16:19.699Z,21.05
2022-08-19T22:21:40.835Z,20.97
2022-08-19T22:26:42.454Z,20.96
2022-08-19T22:31:44.396Z,20.99
2022-08-19T22:36:45.726Z,20.98
2022-08-19T22:41:47.116Z,20.88
2022-08-19T22:46:48.540Z,20.83
2022-08-19T22:52:08.599Z,20.71
2022-08-19T22:57:11.302Z,20.68
2022-08-19T23:02:17.984Z,20.48
2022-08-19T23:07:23.856Z,20.23
2022-08-19T23:12:27.004Z,20.03
2022-08-19T23:17:28.385Z,19.79
2022-08-19T23:22:30.528Z,19.61
2022-08-19T23:27:50.548Z,19.45
2022-08-19T23:33:13.773Z,19.33
2022-08-19T23:38:15.111Z,19.33
2022-08-19T23:43:20.834Z,19.21
2022-08-19T23:48:28.455Z,19.18
2022-08-19T23:53:30.229Z,19.13
2022-08-19T23:58:31.948Z,19.10
